Dimondale, Michigan
Current Conditions -  °F | °C
As of 7:53 PM on Monday 24 Nov 2014 (Local Time) from KLAN Reporting Station
Light Snow Light Snow  
Wind Chill: 22°   Ceiling: 1700
Heat Index: 34°   Visibility: 6mi
Dew Point: 27°   Wind: 23mph
Humidity: 75%   Direction: 230°SW
Pressure: 29.54"   Gusts: 41mph
Location:  42.65°N, 84.65°W
Report Text: KLAN 250053Z 23020G36KT 6SM -SN BKN017 OVC023 01/M03 A2954 RMK AO2 PK WND 22038/0017 UPE2355B25E27RAB15E25SNB2355E15B27 SLP008 P0000 T00111028
Loading
Personal Weather Stations






























Interactive Weather Map New forecast layout! Learn more

10-Day Weather Forecast

Advertisements
Track Severe Weather on mobile